Urmond, Netherlands
Current Conditions -  °F | °C
As of 3:55 AM on Thursday 23 Oct 2014 (Local Time) from EHBK Reporting Station
Few Clouds Few Clouds  
Wind Chill: 44°   Ceiling: Unl
Heat Index: 46°   Visibility: 5mi
Dew Point: 45°   Wind: 6mph
Humidity: 93%   Direction: 210°SSW
Pressure: 30.21"   Gusts: NA
Location:  50.99°N, 5.77°E
Report Text: EHBK 230155Z AUTO 21005KT 8000 FEW039 08/07 Q1023
Loading
Personal Weather Stations






























Interactive Weather Map
Tropical Storm Tracking
New forecast layout! Learn more

10-Day Weather Forecast

Advertisements
Track Severe Weather on mobile